createdAt,value
2023-04-20T00:02:16.408Z,68.76
2023-04-20T00:04:43.325Z,71.35
2023-04-20T00:07:10.269Z,70.75
2023-04-20T00:09:36.766Z,71.08
2023-04-20T00:12:03.314Z,70.51
2023-04-20T00:14:29.919Z,70.05
2023-04-20T00:16:56.330Z,70.79
2023-04-20T00:19:23.153Z,70.75
2023-04-20T00:21:49.989Z,70.87
2023-04-20T00:24:16.389Z,71.85
2023-04-20T00:26:42.748Z,71.55
2023-04-20T00:29:09.242Z,72.08
2023-04-20T00:31:35.712Z,72.28
2023-04-20T00:34:02.169Z,72.50
2023-04-20T00:36:28.605Z,73.66
2023-04-20T00:38:54.998Z,73.16
2023-04-20T00:41:21.470Z,74.06
2023-04-20T00:43:52.729Z,74.95
2023-04-20T00:46:21.071Z,74.71
2023-04-20T00:48:50.048Z,76.71
2023-04-20T00:51:16.672Z,76.89
2023-04-20T00:53:43.110Z,76.55
2023-04-20T00:56:09.776Z,76.80
2023-04-20T00:58:36.465Z,77.04
2023-04-20T01:01:02.972Z,77.44
2023-04-20T01:03:29.592Z,78.30
2023-04-20T01:05:56.533Z,79.05
2023-04-20T01:08:27.553Z,79.10
2023-04-20T01:10:55.119Z,79.27
2023-04-20T01:13:21.651Z,80.24
2023-04-20T01:15:48.181Z,80.74
2023-04-20T01:18:15.278Z,81.46
2023-04-20T01:20:41.781Z,82.37
2023-04-20T01:23:08.148Z,82.93
2023-04-20T01:25:34.545Z,83.85
2023-04-20T01:28:02.018Z,84.94
2023-04-20T01:30:29.169Z,85.50
2023-04-20T01:32:55.779Z,86.60
2023-04-20T01:35:22.223Z,87.44
2023-04-20T01:37:48.671Z,88.41
2023-04-20T01:40:15.948Z,88.76
2023-04-20T01:42:42.348Z,89.49
2023-04-20T01:45:09.200Z,90.34
2023-04-20T01:47:35.970Z,91.23
2023-04-20T01:50:02.569Z,91.02
2023-04-20T01:52:28.925Z,91.82
2023-04-20T01:54:55.309Z,92.62
2023-04-20T01:57:21.707Z,92.54
2023-04-20T01:59:48.797Z,92.89
2023-04-20T02:02:15.359Z,93.17
2023-04-20T02:04:41.773Z,93.62
2023-04-20T02:07:08.135Z,93.41
2023-04-20T02:09:34.598Z,93.57
2023-04-20T02:12:02.119Z,93.71
2023-04-20T02:14:28.422Z,93.31
2023-04-20T02:16:54.949Z,92.71
2023-04-20T02:19:21.426Z,92.64
2023-04-20T02:21:47.829Z,93.22
2023-04-20T02:24:14.208Z,92.78
2023-04-20T02:26:40.619Z,92.82
2023-04-20T02:29:07.010Z,92.46
2023-04-20T02:31:34.364Z,92.59
2023-04-20T02:34:00.899Z,92.88
2023-04-20T02:36:28.148Z,92.69
2023-04-20T02:38:54.535Z,92.50
2023-04-20T02:41:21.114Z,92.76
2023-04-20T02:43:47.497Z,92.73
2023-04-20T02:46:13.950Z,93.06
2023-04-20T02:48:40.561Z,92.96
2023-04-20T02:51:07.045Z,92.99
2023-04-20T02:53:33.485Z,93.48
2023-04-20T02:55:59.886Z,93.19
2023-04-20T02:58:26.540Z,93.41
2023-04-20T03:00:59.393Z,94.05
2023-04-20T03:03:26.041Z,94.05
2023-04-20T03:05:52.693Z,94.35
2023-04-20T03:08:19.077Z,94.42
2023-04-20T03:10:45.545Z,95.11
2023-04-20T03:13:11.921Z,95.36
2023-04-20T03:15:38.344Z,95.30
2023-04-20T03:18:05.018Z,95.74
2023-04-20T03:20:32.098Z,96.16
2023-04-20T03:22:58.543Z,96.25
2023-04-20T03:25:25.101Z,96.83
2023-04-20T03:27:51.456Z,96.14
2023-04-20T03:30:17.804Z,96.99
2023-04-20T03:32:45.075Z,97.13
2023-04-20T03:35:11.533Z,97.04
2023-04-20T03:37:38.253Z,97.22
2023-04-20T03:40:07.042Z,97.39
2023-04-20T03:42:33.497Z,97.16
2023-04-20T03:44:59.992Z,97.49
2023-04-20T03:47:26.458Z,97.30
2023-04-20T03:49:52.908Z,97.56
2023-04-20T03:52:19.358Z,97.57
2023-04-20T03:54:45.881Z,98.66
2023-04-20T03:57:13.342Z,99.51
2023-04-20T03:59:39.691Z,100.00
2023-04-20T04:02:06.307Z,100.00
2023-04-20T04:04:33.257Z,100.00
2023-04-20T04:06:59.864Z,100.00
2023-04-20T04:09:26.665Z,100.00
2023-04-20T04:11:53.087Z,100.00
2023-04-20T04:14:19.470Z,100.00
2023-04-20T04:16:46.336Z,100.00
2023-04-20T04:19:12.792Z,100.00
2023-04-20T04:21:39.220Z,100.00
2023-04-20T04:24:05.908Z,100.00
2023-04-20T04:26:33.604Z,100.00
2023-04-20T04:29:00.042Z,100.00
2023-04-20T04:31:26.625Z,100.00
2023-04-20T04:33:53.144Z,100.00
2023-04-20T04:36:19.880Z,100.00
2023-04-20T04:38:46.385Z,100.00
2023-04-20T04:41:13.090Z,100.00
2023-04-20T04:43:41.049Z,100.00
2023-04-20T04:46:11.508Z,100.00
2023-04-20T04:48:40.521Z,100.00
2023-04-20T04:51:06.961Z,100.00
2023-04-20T04:53:33.423Z,100.00
2023-04-20T04:56:00.023Z,100.00
2023-04-20T04:58:26.499Z,100.00
2023-04-20T05:00:53.014Z,100.00
2023-04-20T05:03:19.525Z,100.00
2023-04-20T05:05:46.150Z,100.00
2023-04-20T05:08:12.799Z,100.00
2023-04-20T05:10:39.244Z,100.00
2023-04-20T05:13:05.829Z,100.00
2023-04-20T05:15:32.433Z,100.00
2023-04-20T05:17:59.163Z,100.00
2023-04-20T05:20:25.636Z,100.00
2023-04-20T05:22:52.177Z,100.00
2023-04-20T05:25:18.877Z,100.00
2023-04-20T05:27:45.400Z,100.00
2023-04-20T05:30:20.269Z,100.00
2023-04-20T05:32:51.090Z,100.00
2023-04-20T05:35:18.737Z,100.00
2023-04-20T05:37:45.339Z,100.00
2023-04-20T05:40:12.000Z,100.00
2023-04-20T05:42:38.526Z,100.00
2023-04-20T05:45:05.567Z,100.00
2023-04-20T05:47:32.131Z,100.00
2023-04-20T05:49:58.582Z,100.00
2023-04-20T05:52:25.106Z,100.00
2023-04-20T05:54:51.513Z,100.00
2023-04-20T05:57:17.882Z,100.00
2023-04-20T05:59:44.953Z,100.00
2023-04-20T06:02:11.461Z,100.00
2023-04-20T06:04:38.270Z,100.00
2023-04-20T06:07:04.798Z,100.00
2023-04-20T06:09:31.313Z,100.00
2023-04-20T06:12:00.258Z,100.00
2023-04-20T06:14:26.706Z,100.00
2023-04-20T06:16:53.143Z,100.00
2023-04-20T06:19:19.613Z,100.00
2023-04-20T06:21:46.458Z,100.00
2023-04-20T06:24:12.918Z,100.00
2023-04-20T06:26:39.377Z,100.00
2023-04-20T06:29:05.789Z,100.00
2023-04-20T06:31:32.589Z,100.00
2023-04-20T06:33:59.052Z,100.00
2023-04-20T06:36:25.756Z,100.00
2023-04-20T06:38:52.310Z,100.00
2023-04-20T06:41:18.692Z,100.00
2023-04-20T06:43:46.253Z,100.00
2023-04-20T06:46:12.743Z,100.00
2023-04-20T06:48:39.170Z,100.00
2023-04-20T06:51:05.911Z,100.00
2023-04-20T06:53:32.402Z,100.00
2023-04-20T06:55:58.987Z,100.00
2023-04-20T06:58:25.540Z,100.00
2023-04-20T07:00:52.398Z,100.00
2023-04-20T07:03:19.579Z,100.00
2023-04-20T07:05:46.737Z,100.00
2023-04-20T07:08:15.548Z,100.00
2023-04-20T07:10:42.019Z,100.00
2023-04-20T07:13:08.428Z,100.00
2023-04-20T07:15:34.793Z,100.00
2023-04-20T07:18:01.306Z,100.00
2023-04-20T07:20:27.712Z,100.00
2023-04-20T07:22:54.159Z,100.00
2023-04-20T07:25:20.649Z,100.00
2023-04-20T07:27:47.133Z,100.00
2023-04-20T07:30:13.924Z,100.00
2023-04-20T07:32:41.583Z,100.00
2023-04-20T07:35:09.149Z,100.00
2023-04-20T07:37:35.986Z,100.00
2023-04-20T07:40:06.463Z,100.00
2023-04-20T07:42:34.875Z,100.00
2023-04-20T07:45:01.574Z,100.00
2023-04-20T07:47:28.074Z,100.00
2023-04-20T07:49:54.873Z,100.00
2023-04-20T07:52:21.384Z,100.00
2023-04-20T07:54:47.899Z,100.00
2023-04-20T07:57:15.163Z,100.00
2023-04-20T07:59:41.660Z,100.00
2023-04-20T08:02:08.674Z,100.00
2023-04-20T08:04:38.762Z,100.00
2023-04-20T08:07:05.508Z,100.00
2023-04-20T08:09:31.925Z,100.00
2023-04-20T08:11:58.530Z,100.00
2023-04-20T08:14:25.007Z,100.00
2023-04-20T08:16:51.477Z,100.00
2023-04-20T08:19:18.100Z,100.00
2023-04-20T08:21:44.537Z,100.00
2023-04-20T08:24:11.302Z,100.00
2023-04-20T08:26:38.709Z,100.00
2023-04-20T08:29:05.682Z,100.00
2023-04-20T08:31:32.477Z,100.00
2023-04-20T08:33:59.004Z,100.00
2023-04-20T08:36:27.972Z,100.00
2023-04-20T08:39:19.757Z,100.00
2023-04-20T08:41:47.057Z,100.00
2023-04-20T08:44:13.748Z,100.00
2023-04-20T08:46:45.622Z,100.00
2023-04-20T08:49:13.175Z,100.00
2023-04-20T08:51:39.725Z,100.00
2023-04-20T08:54:06.938Z,100.00
2023-04-20T08:56:38.393Z,100.00
2023-04-20T08:59:05.756Z,100.00
2023-04-20T09:01:35.607Z,100.00
2023-04-20T09:04:03.585Z,100.00
2023-04-20T09:06:31.178Z,100.00
2023-04-20T09:08:57.522Z,100.00
2023-04-20T09:11:29.616Z,100.00
2023-04-20T09:14:06.761Z,100.00
2023-04-20T09:16:34.724Z,100.00
2023-04-20T09:19:01.332Z,100.00
2023-04-20T09:21:28.877Z,99.21
2023-04-20T09:24:08.407Z,99.21
2023-04-20T09:26:36.164Z,98.37
2023-04-20T09:29:03.997Z,98.62
2023-04-20T09:31:30.608Z,98.76
2023-04-20T09:34:02.144Z,99.44
2023-04-20T09:36:37.332Z,98.95
2023-04-20T09:39:10.256Z,99.09
2023-04-20T09:41:38.332Z,99.35
2023-04-20T09:44:06.075Z,99.14
2023-04-20T09:46:35.261Z,98.95
2023-04-20T09:49:04.750Z,98.05
2023-04-20T09:51:33.182Z,96.49
2023-04-20T09:54:01.211Z,96.45
2023-04-20T09:56:28.737Z,96.38
2023-04-20T09:58:55.702Z,96.67
2023-04-20T10:01:23.471Z,96.93
2023-04-20T10:03:53.837Z,94.83
2023-04-20T10:06:24.615Z,93.75
2023-04-20T10:08:52.167Z,92.97
2023-04-20T10:11:52.812Z,93.80
2023-04-20T10:14:25.635Z,92.26
2023-04-20T10:17:03.273Z,92.85
2023-04-20T10:19:39.787Z,92.60
2023-04-20T10:22:07.816Z,92.57
2023-04-20T10:24:34.588Z,93.29
2023-04-20T10:27:02.827Z,93.92
2023-04-20T10:29:29.704Z,94.28
2023-04-20T10:31:56.654Z,93.36
2023-04-20T10:34:59.941Z,93.03
2023-04-20T10:37:26.701Z,94.97
2023-04-20T10:39:53.200Z,95.60
2023-04-20T10:42:19.626Z,94.06
2023-04-20T10:44:53.986Z,94.17
2023-04-20T10:47:30.924Z,95.37
2023-04-20T10:50:16.492Z,93.83
2023-04-20T10:52:44.155Z,93.67
2023-04-20T10:55:22.692Z,92.75
2023-04-20T10:57:50.581Z,91.48
2023-04-20T11:00:18.718Z,90.83
2023-04-20T11:02:52.449Z,90.41
2023-04-20T11:05:20.524Z,90.81
2023-04-20T11:07:58.040Z,90.83
2023-04-20T11:10:38.115Z,92.62
2023-04-20T11:13:04.580Z,92.01
2023-04-20T11:15:34.249Z,91.77
2023-04-20T11:18:12.007Z,91.96
2023-04-20T11:20:52.255Z,91.37
2023-04-20T11:23:23.491Z,91.50
2023-04-20T11:25:54.609Z,92.28
2023-04-20T11:28:21.457Z,93.22
2023-04-20T11:30:49.614Z,94.37
2023-04-20T11:33:27.644Z,94.02
2023-04-20T11:35:54.193Z,94.92
2023-04-20T11:38:35.003Z,94.35
2023-04-20T11:41:04.792Z,93.90
2023-04-20T11:43:32.548Z,94.15
2023-04-20T11:46:01.973Z,93.34
2023-04-20T11:48:31.815Z,92.05
2023-04-20T11:50:58.809Z,92.07
2023-04-20T11:53:25.400Z,91.55
2023-04-20T11:55:52.048Z,91.52
2023-04-20T11:58:18.479Z,90.71
2023-04-20T12:00:44.916Z,89.66
2023-04-20T12:03:11.584Z,88.67
2023-04-20T12:05:38.247Z,88.14
2023-04-20T12:08:05.721Z,89.08
2023-04-20T12:10:32.046Z,86.46
2023-04-20T12:13:00.017Z,86.28
2023-04-20T12:15:26.944Z,86.77
2023-04-20T12:17:53.579Z,87.58
2023-04-20T12:20:20.136Z,87.13
2023-04-20T12:22:46.537Z,88.50
2023-04-20T12:25:13.104Z,88.99
2023-04-20T12:27:39.819Z,89.70
2023-04-20T12:30:07.573Z,90.40
2023-04-20T12:32:33.997Z,89.80
2023-04-20T12:35:00.484Z,89.83
2023-04-20T12:37:27.492Z,89.41
2023-04-20T12:39:53.894Z,89.42
2023-04-20T12:42:20.311Z,89.37
2023-04-20T12:44:46.721Z,85.65
2023-04-20T12:47:13.738Z,82.84
2023-04-20T12:49:40.262Z,84.86
2023-04-20T12:52:08.155Z,85.97
2023-04-20T12:54:34.750Z,86.19
2023-04-20T12:57:02.486Z,86.88
2023-04-20T12:59:29.082Z,87.52
2023-04-20T13:01:55.557Z,86.04
2023-04-20T13:04:22.501Z,86.35
2023-04-20T13:06:49.306Z,86.61
2023-04-20T13:09:15.749Z,85.89
2023-04-20T13:11:42.138Z,87.13
2023-04-20T13:14:08.509Z,86.88
2023-04-20T13:16:34.985Z,86.77
2023-04-20T13:19:01.551Z,86.96
2023-04-20T13:21:28.058Z,86.52
2023-04-20T13:23:56.220Z,86.64
2023-04-20T13:26:23.385Z,86.25
2023-04-20T13:28:49.776Z,84.68
2023-04-20T13:31:16.354Z,84.04
2023-04-20T13:33:42.826Z,82.44
2023-04-20T13:36:09.458Z,80.59
2023-04-20T13:38:35.974Z,77.07
2023-04-20T13:41:02.454Z,75.93
2023-04-20T13:43:28.850Z,75.92
2023-04-20T13:45:55.367Z,74.42
2023-04-20T13:48:21.756Z,73.47
2023-04-20T13:50:48.160Z,70.37
2023-04-20T13:53:14.545Z,69.67
2023-04-20T13:55:40.908Z,68.57
2023-04-20T13:58:07.320Z,69.70
2023-04-20T14:00:34.760Z,68.28
2023-04-20T14:03:02.232Z,67.93
2023-04-20T14:05:28.903Z,65.34
2023-04-20T14:07:55.523Z,66.87
2023-04-20T14:10:22.044Z,68.47
2023-04-20T14:12:48.541Z,69.31
2023-04-20T14:15:15.093Z,67.68
2023-04-20T14:17:41.550Z,66.35
2023-04-20T14:20:09.375Z,63.52
2023-04-20T14:22:37.319Z,60.55
2023-04-20T14:25:04.906Z,57.39
2023-04-20T14:27:31.474Z,57.63
2023-04-20T14:29:58.291Z,61.96
2023-04-20T14:32:24.730Z,64.92
2023-04-20T14:34:51.321Z,66.49
2023-04-20T14:37:17.791Z,67.99
2023-04-20T14:39:44.165Z,69.67
2023-04-20T14:42:10.623Z,70.41
2023-04-20T14:44:37.011Z,70.21
2023-04-20T14:47:03.492Z,66.30
2023-04-20T14:49:30.038Z,63.90
2023-04-20T14:51:56.470Z,64.21
2023-04-20T14:54:22.902Z,65.04
2023-04-20T14:56:49.315Z,64.35
2023-04-20T14:59:15.710Z,64.67
2023-04-20T15:01:51.584Z,66.21
2023-04-20T15:04:21.740Z,67.14
2023-04-20T15:06:48.411Z,65.49
2023-04-20T15:09:14.961Z,66.39
2023-04-20T15:11:41.332Z,65.52
2023-04-20T15:14:07.705Z,63.09
2023-04-20T15:16:34.279Z,63.84
2023-04-20T15:19:00.686Z,63.49
2023-04-20T15:21:27.574Z,64.69
2023-04-20T15:23:53.978Z,63.60
2023-04-20T15:26:20.826Z,65.60
2023-04-20T15:28:47.538Z,65.97
2023-04-20T15:31:16.521Z,66.26
2023-04-20T15:33:44.812Z,65.99
2023-04-20T15:36:11.396Z,67.74
2023-04-20T15:38:37.778Z,69.46
2023-04-20T15:41:04.242Z,69.55
2023-04-20T15:43:30.725Z,69.26
2023-04-20T15:45:57.232Z,68.22
2023-04-20T15:48:23.645Z,66.41
2023-04-20T15:50:51.811Z,64.97
2023-04-20T15:53:19.566Z,62.55
2023-04-20T15:55:46.289Z,64.33
2023-04-20T15:58:12.813Z,65.84
2023-04-20T16:00:41.346Z,67.30
2023-04-20T16:03:07.887Z,65.52
2023-04-20T16:05:34.541Z,63.52
2023-04-20T16:08:01.325Z,62.35
2023-04-20T16:10:27.876Z,63.55
2023-04-20T16:12:54.415Z,64.28
2023-04-20T16:15:21.150Z,64.81
2023-04-20T16:17:47.704Z,65.09
2023-04-20T16:20:14.278Z,65.45
2023-04-20T16:22:40.942Z,65.52
2023-04-20T16:25:07.801Z,63.99
2023-04-20T16:27:34.185Z,63.04
2023-04-20T16:30:00.810Z,62.66
2023-04-20T16:32:27.971Z,62.06
2023-04-20T16:34:54.469Z,61.08
2023-04-20T16:37:20.937Z,60.44
2023-04-20T16:39:47.401Z,60.97
2023-04-20T16:42:13.855Z,60.81
2023-04-20T16:44:41.838Z,61.43
2023-04-20T16:47:08.594Z,61.74
2023-04-20T16:49:35.852Z,61.07
2023-04-20T16:52:02.322Z,61.00
2023-04-20T16:54:28.768Z,60.64
2023-04-20T16:56:55.900Z,60.13
2023-04-20T16:59:22.314Z,60.54
2023-04-20T17:01:49.231Z,61.99
2023-04-20T17:04:17.581Z,63.36
2023-04-20T17:06:46.313Z,65.07
2023-04-20T17:09:12.740Z,65.62
2023-04-20T17:11:39.782Z,66.46
2023-04-20T17:14:07.270Z,68.24
2023-04-20T17:16:33.793Z,67.80
2023-04-20T17:19:00.631Z,67.83
2023-04-20T17:21:28.914Z,68.70
2023-04-20T17:23:56.238Z,70.27
2023-04-20T17:26:22.669Z,70.90
2023-04-20T17:28:49.227Z,71.92
2023-04-20T17:31:15.712Z,73.08
2023-04-20T17:33:43.349Z,75.02
2023-04-20T17:36:09.878Z,76.45
2023-04-20T17:38:38.349Z,77.56
2023-04-20T17:41:04.914Z,78.15
2023-04-20T17:43:31.422Z,79.39
2023-04-20T17:46:00.786Z,80.62
2023-04-20T17:48:27.692Z,82.10
2023-04-20T17:50:54.483Z,86.61
2023-04-20T17:53:21.227Z,84.47
2023-04-20T17:55:47.688Z,85.77
2023-04-20T17:58:14.189Z,86.32
2023-04-20T18:00:40.840Z,87.11
2023-04-20T18:03:07.434Z,90.25
2023-04-20T18:05:33.991Z,93.25
2023-04-20T18:08:00.697Z,100.00
2023-04-20T18:10:27.900Z,100.00
2023-04-20T18:12:54.399Z,100.00
2023-04-20T18:15:20.936Z,100.00
2023-04-20T18:17:47.444Z,100.00
2023-04-20T18:20:13.946Z,100.00
2023-04-20T18:22:40.515Z,100.00
2023-04-20T18:25:07.175Z,100.00
2023-04-20T18:27:33.645Z,100.00
2023-04-20T18:30:00.145Z,100.00
2023-04-20T18:32:27.493Z,100.00
2023-04-20T18:34:53.886Z,100.00
2023-04-20T18:37:20.608Z,100.00
2023-04-20T18:39:47.038Z,100.00
2023-04-20T18:42:13.508Z,100.00
2023-04-20T18:44:40.619Z,100.00
2023-04-20T18:47:07.190Z,100.00
2023-04-20T18:49:34.933Z,100.00
2023-04-20T18:52:01.535Z,100.00
2023-04-20T18:54:28.109Z,100.00
2023-04-20T18:56:58.340Z,100.00
2023-04-20T18:59:25.028Z,100.00
2023-04-20T19:01:52.482Z,100.00
2023-04-20T19:04:19.737Z,100.00
2023-04-20T19:06:46.402Z,100.00
2023-04-20T19:09:12.897Z,100.00
2023-04-20T19:11:39.323Z,100.00
2023-04-20T19:14:05.890Z,100.00
2023-04-20T19:16:34.087Z,100.00
2023-04-20T19:19:01.126Z,100.00
2023-04-20T19:21:27.704Z,100.00
2023-04-20T19:23:54.138Z,100.00
2023-04-20T19:26:20.626Z,100.00
2023-04-20T19:28:47.151Z,100.00
2023-04-20T19:31:13.897Z,100.00
2023-04-20T19:33:40.766Z,100.00
2023-04-20T19:36:08.249Z,100.00
2023-04-20T19:38:35.237Z,100.00
2023-04-20T19:41:01.705Z,100.00
2023-04-20T19:43:28.106Z,100.00
2023-04-20T19:45:58.853Z,100.00
2023-04-20T19:48:26.022Z,100.00
2023-04-20T19:50:52.984Z,100.00
2023-04-20T19:53:19.464Z,100.00
2023-04-20T19:55:45.918Z,100.00
2023-04-20T19:58:13.347Z,100.00
2023-04-20T20:00:40.054Z,100.00
2023-04-20T20:03:08.143Z,100.00
2023-04-20T20:05:35.115Z,100.00
2023-04-20T20:08:01.655Z,100.00
2023-04-20T20:10:28.091Z,100.00
2023-04-20T20:12:54.559Z,100.00
2023-04-20T20:15:21.012Z,100.00
2023-04-20T20:17:47.731Z,100.00
2023-04-20T20:20:15.586Z,100.00
2023-04-20T20:22:48.134Z,100.00
2023-04-20T20:25:20.945Z,100.00
2023-04-20T20:27:47.443Z,100.00
2023-04-20T20:30:14.730Z,100.00
2023-04-20T20:32:41.627Z,100.00
2023-04-20T20:35:11.439Z,100.00
2023-04-20T20:37:38.828Z,100.00
2023-04-20T20:40:06.915Z,100.00
2023-04-20T20:42:34.069Z,100.00
2023-04-20T20:45:01.002Z,100.00
2023-04-20T20:47:27.560Z,100.00
2023-04-20T20:49:54.100Z,100.00
2023-04-20T20:52:21.107Z,100.00
2023-04-20T20:54:47.556Z,100.00
2023-04-20T20:57:13.929Z,100.00
2023-04-20T20:59:40.368Z,100.00
2023-04-20T21:02:06.819Z,100.00
2023-04-20T21:04:33.304Z,100.00
2023-04-20T21:06:59.739Z,100.00
2023-04-20T21:09:26.493Z,100.00
2023-04-20T21:11:53.137Z,100.00
2023-04-20T21:14:19.650Z,100.00
2023-04-20T21:16:46.166Z,100.00
2023-04-20T21:19:12.612Z,100.00
2023-04-20T21:21:38.997Z,100.00
2023-04-20T21:24:05.463Z,100.00
2023-04-20T21:26:35.721Z,100.00
2023-04-20T21:29:03.438Z,100.00
2023-04-20T21:31:30.636Z,100.00
2023-04-20T21:33:57.628Z,100.00
2023-04-20T21:36:24.075Z,100.00
2023-04-20T21:38:50.544Z,100.00
2023-04-20T21:41:17.035Z,100.00
2023-04-20T21:43:43.663Z,100.00
2023-04-20T21:46:14.569Z,100.00
2023-04-20T21:48:41.074Z,100.00
2023-04-20T21:51:07.579Z,100.00
2023-04-20T21:53:34.073Z,100.00
2023-04-20T21:56:00.444Z,100.00
2023-04-20T21:58:26.826Z,100.00
2023-04-20T22:00:53.194Z,100.00
2023-04-20T22:03:19.715Z,100.00
2023-04-20T22:05:46.153Z,100.00
2023-04-20T22:08:14.607Z,100.00
2023-04-20T22:10:41.500Z,100.00
2023-04-20T22:13:07.860Z,100.00
2023-04-20T22:15:34.271Z,100.00
2023-04-20T22:18:00.796Z,100.00
2023-04-20T22:20:27.761Z,100.00
2023-04-20T22:22:54.157Z,100.00
2023-04-20T22:25:20.765Z,100.00
2023-04-20T22:27:47.153Z,100.00
2023-04-20T22:30:13.671Z,100.00
2023-04-20T22:32:40.949Z,100.00
2023-04-20T22:35:07.933Z,100.00
2023-04-20T22:37:34.649Z,100.00
2023-04-20T22:40:01.187Z,100.00
2023-04-20T22:42:27.671Z,100.00
2023-04-20T22:44:54.082Z,100.00
2023-04-20T22:47:20.542Z,100.00
2023-04-20T22:49:47.369Z,100.00
2023-04-20T22:52:13.807Z,100.00
2023-04-20T22:54:40.336Z,100.00
2023-04-20T22:57:06.709Z,100.00
2023-04-20T22:59:33.130Z,100.00
2023-04-20T23:01:59.666Z,100.00
2023-04-20T23:04:26.510Z,100.00
2023-04-20T23:06:52.990Z,100.00
2023-04-20T23:09:20.669Z,100.00
2023-04-20T23:11:47.387Z,100.00
2023-04-20T23:14:14.106Z,100.00
2023-04-20T23:16:41.168Z,100.00
2023-04-20T23:19:07.721Z,100.00
2023-04-20T23:21:34.294Z,100.00
2023-04-20T23:24:00.639Z,100.00
2023-04-20T23:26:27.063Z,100.00
2023-04-20T23:28:53.555Z,100.00
2023-04-20T23:31:20.558Z,100.00
2023-04-20T23:33:47.824Z,100.00
2023-04-20T23:36:14.336Z,100.00
2023-04-20T23:38:40.886Z,100.00
2023-04-20T23:41:11.678Z,100.00
2023-04-20T23:43:38.825Z,100.00
2023-04-20T23:46:06.414Z,100.00
2023-04-20T23:48:33.311Z,100.00
2023-04-20T23:51:00.470Z,100.00
2023-04-20T23:53:27.318Z,100.00
2023-04-20T23:55:55.613Z,100.00
2023-04-20T23:58:28.817Z,100.00
